This is the latest recevied weather packets stored in our database for station/object KB2FWP. If no packets are shown the sender has not sent any weather packets the latest 10 day(s).
| Time | Temp. | Humidity | Pressure | Rain* | Wind** | Luminosity | Snow |
|---|---|---|---|---|---|---|---|
| 1778189409 | 16.11° C | 53% | 1008.9 hPa | 0 mm | - | - | - |
| 1778188509 | 16.11° C | 53% | 1008.8 hPa | 0 mm | - | - | - |
| 1778187608 | 16.67° C | 53% | 1008.8 hPa | 0 mm | - | - | - |
| 1778186706 | 20° C | 34% | 1009 hPa | 0 mm | - | - | - |
| 1778185808 | 20° C | 38% | 1008.9 hPa | 0 mm | - | - | - |
| 1778184911 | 19.44° C | 34% | 1009.1 hPa | 0 mm | - | - | - |
| 1778184005 | 20.56° C | 31% | 1009 hPa | 0 mm | - | - | - |
| 1778183105 | 19.44° C | 34% | 1009 hPa | 0 mm | - | - | - |
| 1778182206 | 20.56° C | 33% | 1009.2 hPa | 0 mm | - | - | - |
| 1778181304 | 20° C | 33% | 1009.4 hPa | 0 mm | - | - | - |
| 1778180404 | 20° C | 33% | 1009.5 hPa | 0 mm | - | - | - |
| 1778179502 | 20° C | 34% | 1009.5 hPa | 0 mm | - | - | - |
| 1778178602 | 21.67° C | 36% | 1009.8 hPa | 0 mm | - | - | - |
| 1778177759 | 20.56° C | 38% | 1010.1 hPa | 0 mm | - | - | - |
| 1778176862 | 21.67° C | 35% | 1010.2 hPa | 0 mm | - | - | - |
| 1778175968 | 20° C | 40% | 1010.2 hPa | 0 mm | - | - | - |
| 1778175054 | 20° C | 37% | 1010.3 hPa | 0 mm | - | - | - |
| 1778174164 | 20.56° C | 41% | 1010.6 hPa | 0 mm | - | - | - |
| 1778173250 | 20.56° C | 43% | 1010.7 hPa | 0 mm | - | - | - |
| 1778172350 | 19.44° C | 50% | 1010.8 hPa | 0 mm | - | - | - |
| 1778171449 | 17.78° C | 53% | 1011.2 hPa | 0 mm | - | - | - |
| 1778170543 | 17.22° C | 55% | 1011.5 hPa | 0 mm | - | - | - |
| 1778169647 | 16.67° C | 57% | 1011.8 hPa | 0 mm | - | - | - |
| 1778168738 | 17.22° C | 59% | 1012 hPa | 0 mm | - | - | - |
| 1778167841 | 16.67° C | 60% | 1012 hPa | 0 mm | - | - | - |
* Rain latest hour (hover to see other rain measurements)
** Current wind speed in m/s (hover to see current wind gust speed)